sensor_id;sensor_type;location;lat;lon;timestamp;P1;durP1;ratioP1;P2;durP2;ratioP2
31112;SDS011;17763;48.730;9.136;2023-09-08T00:02:11;9.15;;;8.00;;
31112;SDS011;17763;48.730;9.136;2023-09-08T00:04:39;8.85;;;8.05;;
31112;SDS011;17763;48.730;9.136;2023-09-08T00:07:05;8.70;;;7.90;;
31112;SDS011;17763;48.730;9.136;2023-09-08T00:09:30;9.10;;;8.30;;
31112;SDS011;17763;48.730;9.136;2023-09-08T00:11:58;9.32;;;8.35;;
31112;SDS011;17763;48.730;9.136;2023-09-08T00:14:24;8.80;;;8.02;;
31112;SDS011;17763;48.730;9.136;2023-09-08T00:16:51;8.93;;;8.05;;
31112;SDS011;17763;48.730;9.136;2023-09-08T00:19:19;10.82;;;8.57;;
31112;SDS011;17763;48.730;9.136;2023-09-08T00:21:45;9.45;;;8.07;;
31112;SDS011;17763;48.730;9.136;2023-09-08T00:24:11;8.57;;;7.82;;
31112;SDS011;17763;48.730;9.136;2023-09-08T00:26:37;8.57;;;7.68;;
31112;SDS011;17763;48.730;9.136;2023-09-08T00:29:03;8.70;;;7.88;;
31112;SDS011;17763;48.730;9.136;2023-09-08T00:31:28;8.10;;;7.50;;
31112;SDS011;17763;48.730;9.136;2023-09-08T00:33:54;8.10;;;7.30;;
31112;SDS011;17763;48.730;9.136;2023-09-08T00:36:20;8.20;;;7.15;;
31112;SDS011;17763;48.730;9.136;2023-09-08T00:38:45;8.23;;;7.53;;
31112;SDS011;17763;48.730;9.136;2023-09-08T00:41:11;8.20;;;7.40;;
31112;SDS011;17763;48.730;9.136;2023-09-08T00:43:37;8.15;;;7.32;;
31112;SDS011;17763;48.730;9.136;2023-09-08T00:46:03;8.38;;;7.65;;
31112;SDS011;17763;48.730;9.136;2023-09-08T00:48:31;9.82;;;8.07;;
31112;SDS011;17763;48.730;9.136;2023-09-08T00:50:57;7.82;;;7.13;;
31112;SDS011;17763;48.730;9.136;2023-09-08T00:53:23;8.63;;;7.60;;
31112;SDS011;17763;48.730;9.136;2023-09-08T00:55:49;8.68;;;7.88;;
31112;SDS011;17763;48.730;9.136;2023-09-08T00:58:16;8.43;;;7.65;;
31112;SDS011;17763;48.730;9.136;2023-09-08T01:00:42;8.30;;;7.55;;
31112;SDS011;17763;48.730;9.136;2023-09-08T01:03:09;7.55;;;6.82;;
31112;SDS011;17763;48.730;9.136;2023-09-08T01:05:36;7.85;;;7.15;;
31112;SDS011;17763;48.730;9.136;2023-09-08T01:08:02;8.25;;;7.45;;
31112;SDS011;17763;48.730;9.136;2023-09-08T01:10:28;8.10;;;6.88;;
31112;SDS011;17763;48.730;9.136;2023-09-08T01:12:56;7.75;;;7.00;;
31112;SDS011;17763;48.730;9.136;2023-09-08T01:15:24;11.18;;;7.53;;
31112;SDS011;17763;48.730;9.136;2023-09-08T01:17:50;7.63;;;6.88;;
31112;SDS011;17763;48.730;9.136;2023-09-08T01:20:20;10.88;;;8.18;;
31112;SDS011;17763;48.730;9.136;2023-09-08T01:25:46;9.40;;;7.93;;
31112;SDS011;17763;48.730;9.136;2023-09-08T01:30:40;14.75;;;8.43;;
31112;SDS011;17763;48.730;9.136;2023-09-08T01:33:06;8.57;;;7.35;;
31112;SDS011;17763;48.730;9.136;2023-09-08T01:35:37;8.73;;;7.93;;
31112;SDS011;17763;48.730;9.136;2023-09-08T01:38:03;10.85;;;9.70;;
31112;SDS011;17763;48.730;9.136;2023-09-08T01:40:29;10.05;;;8.55;;
31112;SDS011;17763;48.730;9.136;2023-09-08T01:42:54;7.93;;;7.22;;
31112;SDS011;17763;48.730;9.136;2023-09-08T01:45:22;8.85;;;7.95;;
31112;SDS011;17763;48.730;9.136;2023-09-08T01:47:50;8.18;;;7.47;;
31112;SDS011;17763;48.730;9.136;2023-09-08T01:50:16;8.73;;;7.85;;
31112;SDS011;17763;48.730;9.136;2023-09-08T01:52:46;9.57;;;8.57;;
31112;SDS011;17763;48.730;9.136;2023-09-08T01:55:12;8.68;;;7.80;;
31112;SDS011;17763;48.730;9.136;2023-09-08T01:57:38;9.18;;;7.40;;
31112;SDS011;17763;48.730;9.136;2023-09-08T02:00:06;9.57;;;8.50;;
31112;SDS011;17763;48.730;9.136;2023-09-08T02:02:32;9.93;;;8.27;;
31112;SDS011;17763;48.730;9.136;2023-09-08T02:04:58;8.68;;;7.68;;
31112;SDS011;17763;48.730;9.136;2023-09-08T02:07:23;8.90;;;7.45;;
31112;SDS011;17763;48.730;9.136;2023-09-08T02:09:49;10.68;;;7.68;;
31112;SDS011;17763;48.730;9.136;2023-09-08T02:12:15;8.38;;;7.68;;
31112;SDS011;17763;48.730;9.136;2023-09-08T02:14:40;9.07;;;8.27;;
31112;SDS011;17763;48.730;9.136;2023-09-08T02:17:06;9.40;;;8.40;;
31112;SDS011;17763;48.730;9.136;2023-09-08T02:19:32;12.80;;;8.43;;
31112;SDS011;17763;48.730;9.136;2023-09-08T02:21:57;9.57;;;8.00;;
31112;SDS011;17763;48.730;9.136;2023-09-08T02:24:23;9.32;;;8.43;;
31112;SDS011;17763;48.730;9.136;2023-09-08T02:26:49;7.80;;;7.10;;
31112;SDS011;17763;48.730;9.136;2023-09-08T02:29:17;9.38;;;8.43;;
31112;SDS011;17763;48.730;9.136;2023-09-08T02:31:45;9.88;;;8.48;;
31112;SDS011;17763;48.730;9.136;2023-09-08T02:34:11;10.15;;;9.10;;
31112;SDS011;17763;48.730;9.136;2023-09-08T02:36:37;9.88;;;8.85;;
31112;SDS011;17763;48.730;9.136;2023-09-08T02:39:03;8.68;;;7.82;;
31112;SDS011;17763;48.730;9.136;2023-09-08T02:41:34;9.80;;;8.18;;
31112;SDS011;17763;48.730;9.136;2023-09-08T02:44:00;9.98;;;8.63;;
31112;SDS011;17763;48.730;9.136;2023-09-08T02:46:27;10.07;;;9.10;;
31112;SDS011;17763;48.730;9.136;2023-09-08T02:48:55;9.35;;;8.55;;
31112;SDS011;17763;48.730;9.136;2023-09-08T02:51:21;10.10;;;8.57;;
31112;SDS011;17763;48.730;9.136;2023-09-08T02:53:49;9.85;;;8.85;;
31112;SDS011;17763;48.730;9.136;2023-09-08T02:56:16;10.25;;;9.25;;
31112;SDS011;17763;48.730;9.136;2023-09-08T02:58:42;10.05;;;9.10;;
31112;SDS011;17763;48.730;9.136;2023-09-08T03:01:11;10.90;;;9.77;;
31112;SDS011;17763;48.730;9.136;2023-09-08T03:03:45;13.02;;;11.05;;
31112;SDS011;17763;48.730;9.136;2023-09-08T03:06:13;12.07;;;10.18;;
31112;SDS011;17763;48.730;9.136;2023-09-08T03:08:42;10.63;;;9.52;;
31112;SDS011;17763;48.730;9.136;2023-09-08T03:11:12;9.90;;;9.10;;
31112;SDS011;17763;48.730;9.136;2023-09-08T03:13:38;9.85;;;8.88;;
31112;SDS011;17763;48.730;9.136;2023-09-08T03:16:07;10.50;;;9.40;;
31112;SDS011;17763;48.730;9.136;2023-09-08T03:18:34;8.70;;;8.00;;
31112;SDS011;17763;48.730;9.136;2023-09-08T03:21:01;10.23;;;8.80;;
31112;SDS011;17763;48.730;9.136;2023-09-08T03:23:34;9.60;;;8.70;;
31112;SDS011;17763;48.730;9.136;2023-09-08T03:26:04;9.38;;;8.35;;
31112;SDS011;17763;48.730;9.136;2023-09-08T03:28:32;10.68;;;9.55;;
31112;SDS011;17763;48.730;9.136;2023-09-08T03:31:02;11.68;;;9.98;;
31112;SDS011;17763;48.730;9.136;2023-09-08T03:33:28;11.48;;;9.40;;
31112;SDS011;17763;48.730;9.136;2023-09-08T03:35:53;10.60;;;9.50;;
31112;SDS011;17763;48.730;9.136;2023-09-08T03:38:20;12.25;;;9.57;;
31112;SDS011;17763;48.730;9.136;2023-09-08T03:40:46;11.73;;;9.23;;
31112;SDS011;17763;48.730;9.136;2023-09-08T03:43:17;15.38;;;9.60;;
31112;SDS011;17763;48.730;9.136;2023-09-08T03:45:43;12.32;;;10.13;;
31112;SDS011;17763;48.730;9.136;2023-09-08T03:48:12;10.55;;;9.48;;
31112;SDS011;17763;48.730;9.136;2023-09-08T03:50:37;11.70;;;10.57;;
31112;SDS011;17763;48.730;9.136;2023-09-08T03:53:03;12.88;;;9.85;;
31112;SDS011;17763;48.730;9.136;2023-09-08T03:55:29;11.23;;;9.85;;
31112;SDS011;17763;48.730;9.136;2023-09-08T03:57:55;11.57;;;8.93;;
31112;SDS011;17763;48.730;9.136;2023-09-08T04:00:20;10.63;;;9.63;;
31112;SDS011;17763;48.730;9.136;2023-09-08T04:02:49;11.65;;;9.98;;
31112;SDS011;17763;48.730;9.136;2023-09-08T04:05:16;10.18;;;9.15;;
31112;SDS011;17763;48.730;9.136;2023-09-08T04:07:42;11.82;;;9.63;;
31112;SDS011;17763;48.730;9.136;2023-09-08T04:10:08;10.27;;;8.82;;
31112;SDS011;17763;48.730;9.136;2023-09-08T04:12:34;13.05;;;9.73;;
31112;SDS011;17763;48.730;9.136;2023-09-08T04:15:02;11.23;;;10.02;;
31112;SDS011;17763;48.730;9.136;2023-09-08T04:17:28;13.77;;;9.80;;
31112;SDS011;17763;48.730;9.136;2023-09-08T04:19:54;10.50;;;9.57;;
31112;SDS011;17763;48.730;9.136;2023-09-08T04:22:22;11.50;;;10.40;;
31112;SDS011;17763;48.730;9.136;2023-09-08T04:24:48;16.40;;;11.20;;
31112;SDS011;17763;48.730;9.136;2023-09-08T04:27:14;12.00;;;10.05;;
31112;SDS011;17763;48.730;9.136;2023-09-08T04:29:39;11.38;;;10.05;;
31112;SDS011;17763;48.730;9.136;2023-09-08T04:32:05;12.18;;;9.27;;
31112;SDS011;17763;48.730;9.136;2023-09-08T04:34:39;12.18;;;10.48;;
31112;SDS011;17763;48.730;9.136;2023-09-08T04:37:06;10.20;;;9.20;;
31112;SDS011;17763;48.730;9.136;2023-09-08T04:39:33;11.45;;;9.48;;
31112;SDS011;17763;48.730;9.136;2023-09-08T04:42:04;9.98;;;8.98;;
31112;SDS011;17763;48.730;9.136;2023-09-08T04:44:30;12.65;;;9.13;;
31112;SDS011;17763;48.730;9.136;2023-09-08T04:46:56;9.65;;;8.65;;
31112;SDS011;17763;48.730;9.136;2023-09-08T04:49:21;10.57;;;9.43;;
31112;SDS011;17763;48.730;9.136;2023-09-08T04:51:49;10.27;;;9.18;;
31112;SDS011;17763;48.730;9.136;2023-09-08T04:54:15;10.23;;;9.23;;
31112;SDS011;17763;48.730;9.136;2023-09-08T04:56:41;10.15;;;9.23;;
31112;SDS011;17763;48.730;9.136;2023-09-08T04:59:07;9.18;;;8.30;;
31112;SDS011;17763;48.730;9.136;2023-09-08T05:01:32;10.70;;;9.60;;
31112;SDS011;17763;48.730;9.136;2023-09-08T05:04:01;10.13;;;9.23;;
31112;SDS011;17763;48.730;9.136;2023-09-08T05:06:27;10.30;;;9.30;;
31112;SDS011;17763;48.730;9.136;2023-09-08T05:08:55;11.38;;;10.00;;
31112;SDS011;17763;48.730;9.136;2023-09-08T05:11:21;12.98;;;10.68;;
31112;SDS011;17763;48.730;9.136;2023-09-08T05:13:46;14.45;;;10.73;;
31112;SDS011;17763;48.730;9.136;2023-09-08T05:16:17;10.90;;;9.52;;
31112;SDS011;17763;48.730;9.136;2023-09-08T05:18:44;11.63;;;9.18;;
31112;SDS011;17763;48.730;9.136;2023-09-08T05:21:09;12.30;;;9.35;;
31112;SDS011;17763;48.730;9.136;2023-09-08T05:23:39;10.35;;;9.05;;
31112;SDS011;17763;48.730;9.136;2023-09-08T05:26:04;11.38;;;8.98;;
31112;SDS011;17763;48.730;9.136;2023-09-08T05:28:32;12.95;;;9.48;;
31112;SDS011;17763;48.730;9.136;2023-09-08T05:30:58;11.27;;;10.10;;
31112;SDS011;17763;48.730;9.136;2023-09-08T05:33:24;11.35;;;10.25;;
31112;SDS011;17763;48.730;9.136;2023-09-08T05:35:49;11.90;;;10.40;;
31112;SDS011;17763;48.730;9.136;2023-09-08T05:38:17;11.30;;;10.10;;
31112;SDS011;17763;48.730;9.136;2023-09-08T05:40:43;12.60;;;11.10;;
31112;SDS011;17763;48.730;9.136;2023-09-08T05:43:08;13.70;;;11.15;;
31112;SDS011;17763;48.730;9.136;2023-09-08T05:45:36;15.90;;;10.43;;
31112;SDS011;17763;48.730;9.136;2023-09-08T05:48:04;11.55;;;10.45;;
31112;SDS011;17763;48.730;9.136;2023-09-08T05:50:32;12.85;;;9.77;;
31112;SDS011;17763;48.730;9.136;2023-09-08T05:53:00;12.63;;;11.27;;
31112;SDS011;17763;48.730;9.136;2023-09-08T05:55:25;12.30;;;11.00;;
31112;SDS011;17763;48.730;9.136;2023-09-08T05:57:51;13.73;;;11.05;;
31112;SDS011;17763;48.730;9.136;2023-09-08T06:00:17;10.90;;;9.82;;
31112;SDS011;17763;48.730;9.136;2023-09-08T06:02:43;14.95;;;10.77;;
31112;SDS011;17763;48.730;9.136;2023-09-08T06:05:08;11.95;;;10.32;;
31112;SDS011;17763;48.730;9.136;2023-09-08T06:07:36;13.65;;;11.45;;
31112;SDS011;17763;48.730;9.136;2023-09-08T06:10:02;11.10;;;10.00;;
31112;SDS011;17763;48.730;9.136;2023-09-08T06:12:28;11.73;;;10.57;;
31112;SDS011;17763;48.730;9.136;2023-09-08T06:14:54;12.23;;;10.93;;
31112;SDS011;17763;48.730;9.136;2023-09-08T06:17:19;13.25;;;10.80;;
31112;SDS011;17763;48.730;9.136;2023-09-08T06:19:45;11.23;;;9.93;;
31112;SDS011;17763;48.730;9.136;2023-09-08T06:22:11;12.60;;;10.15;;
31112;SDS011;17763;48.730;9.136;2023-09-08T06:24:39;13.75;;;9.95;;
31112;SDS011;17763;48.730;9.136;2023-09-08T06:27:05;15.13;;;9.93;;
31112;SDS011;17763;48.730;9.136;2023-09-08T06:29:31;11.82;;;9.30;;
31112;SDS011;17763;48.730;9.136;2023-09-08T06:31:57;10.23;;;8.85;;
31112;SDS011;17763;48.730;9.136;2023-09-08T06:34:23;11.60;;;9.23;;
31112;SDS011;17763;48.730;9.136;2023-09-08T06:36:49;12.30;;;9.30;;
31112;SDS011;17763;48.730;9.136;2023-09-08T06:39:14;8.95;;;8.23;;
31112;SDS011;17763;48.730;9.136;2023-09-08T06:41:40;9.18;;;8.25;;
31112;SDS011;17763;48.730;9.136;2023-09-08T06:44:06;9.27;;;7.85;;
31112;SDS011;17763;48.730;9.136;2023-09-08T06:46:32;20.83;;;9.02;;
31112;SDS011;17763;48.730;9.136;2023-09-08T06:48:57;15.50;;;8.90;;
31112;SDS011;17763;48.730;9.136;2023-09-08T06:51:23;9.77;;;8.63;;
31112;SDS011;17763;48.730;9.136;2023-09-08T06:53:56;10.10;;;8.80;;
31112;SDS011;17763;48.730;9.136;2023-09-08T06:56:22;11.95;;;8.65;;
31112;SDS011;17763;48.730;9.136;2023-09-08T06:58:48;15.82;;;9.35;;
31112;SDS011;17763;48.730;9.136;2023-09-08T07:01:14;10.05;;;9.02;;
31112;SDS011;17763;48.730;9.136;2023-09-08T07:03:44;11.55;;;9.68;;
31112;SDS011;17763;48.730;9.136;2023-09-08T07:06:10;16.02;;;9.93;;
31112;SDS011;17763;48.730;9.136;2023-09-08T07:08:38;14.05;;;9.20;;
31112;SDS011;17763;48.730;9.136;2023-09-08T07:11:06;10.55;;;8.50;;
31112;SDS011;17763;48.730;9.136;2023-09-08T07:13:32;10.65;;;8.07;;
31112;SDS011;17763;48.730;9.136;2023-09-08T07:15:58;12.93;;;9.10;;
31112;SDS011;17763;48.730;9.136;2023-09-08T07:18:23;8.73;;;7.78;;
31112;SDS011;17763;48.730;9.136;2023-09-08T07:20:49;10.40;;;8.38;;
31112;SDS011;17763;48.730;9.136;2023-09-08T07:23:18;14.60;;;10.70;;
31112;SDS011;17763;48.730;9.136;2023-09-08T07:25:45;9.80;;;8.82;;
31112;SDS011;17763;48.730;9.136;2023-09-08T07:28:16;9.88;;;7.85;;
31112;SDS011;17763;48.730;9.136;2023-09-08T07:30:42;9.65;;;8.60;;
31112;SDS011;17763;48.730;9.136;2023-09-08T07:33:08;9.20;;;7.70;;
31112;SDS011;17763;48.730;9.136;2023-09-08T07:35:37;8.88;;;8.05;;
31112;SDS011;17763;48.730;9.136;2023-09-08T07:38:03;10.02;;;8.00;;
31112;SDS011;17763;48.730;9.136;2023-09-08T07:40:29;9.60;;;7.80;;
31112;SDS011;17763;48.730;9.136;2023-09-08T07:42:56;13.02;;;8.70;;
31112;SDS011;17763;48.730;9.136;2023-09-08T07:45:24;10.75;;;8.02;;
31112;SDS011;17763;48.730;9.136;2023-09-08T07:47:52;12.30;;;8.20;;
31112;SDS011;17763;48.730;9.136;2023-09-08T07:52:52;11.55;;;8.38;;
31112;SDS011;17763;48.730;9.136;2023-09-08T07:55:19;11.93;;;7.88;;
31112;SDS011;17763;48.730;9.136;2023-09-08T07:57:52;11.85;;;8.40;;
31112;SDS011;17763;48.730;9.136;2023-09-08T08:00:18;9.88;;;8.13;;
31112;SDS011;17763;48.730;9.136;2023-09-08T08:02:48;14.40;;;8.20;;
31112;SDS011;17763;48.730;9.136;2023-09-08T08:05:18;16.63;;;7.78;;
31112;SDS011;17763;48.730;9.136;2023-09-08T08:07:44;12.27;;;8.15;;
31112;SDS011;17763;48.730;9.136;2023-09-08T08:10:10;12.95;;;7.88;;
31112;SDS011;17763;48.730;9.136;2023-09-08T08:15:09;10.93;;;8.40;;
31112;SDS011;17763;48.730;9.136;2023-09-08T08:17:36;15.82;;;8.88;;
31112;SDS011;17763;48.730;9.136;2023-09-08T08:20:02;15.23;;;8.77;;
31112;SDS011;17763;48.730;9.136;2023-09-08T08:22:36;8.75;;;7.95;;
31112;SDS011;17763;48.730;9.136;2023-09-08T08:25:02;8.73;;;7.78;;
31112;SDS011;17763;48.730;9.136;2023-09-08T08:27:34;10.43;;;8.07;;
31112;SDS011;17763;48.730;9.136;2023-09-08T08:30:02;11.63;;;7.75;;
31112;SDS011;17763;48.730;9.136;2023-09-08T08:32:30;8.40;;;7.68;;
31112;SDS011;17763;48.730;9.136;2023-09-08T08:34:56;8.38;;;7.45;;
31112;SDS011;17763;48.730;9.136;2023-09-08T08:37:22;7.80;;;7.20;;
31112;SDS011;17763;48.730;9.136;2023-09-08T08:39:50;9.07;;;7.43;;
31112;SDS011;17763;48.730;9.136;2023-09-08T08:42:15;9.27;;;6.93;;
31112;SDS011;17763;48.730;9.136;2023-09-08T08:44:41;14.25;;;8.25;;
31112;SDS011;17763;48.730;9.136;2023-09-08T08:47:09;8.40;;;7.63;;
31112;SDS011;17763;48.730;9.136;2023-09-08T08:49:35;14.63;;;8.10;;
31112;SDS011;17763;48.730;9.136;2023-09-08T08:52:04;9.90;;;8.15;;
31112;SDS011;17763;48.730;9.136;2023-09-08T08:54:37;10.80;;;7.47;;
31112;SDS011;17763;48.730;9.136;2023-09-08T08:57:09;12.18;;;7.68;;
31112;SDS011;17763;48.730;9.136;2023-09-08T08:59:36;15.15;;;7.95;;
31112;SDS011;17763;48.730;9.136;2023-09-08T09:02:02;8.20;;;7.32;;
31112;SDS011;17763;48.730;9.136;2023-09-08T09:04:30;10.80;;;7.43;;
31112;SDS011;17763;48.730;9.136;2023-09-08T09:06:56;9.65;;;7.80;;
31112;SDS011;17763;48.730;9.136;2023-09-08T09:09:25;9.15;;;7.38;;
31112;SDS011;17763;48.730;9.136;2023-09-08T09:11:55;13.13;;;7.83;;
31112;SDS011;17763;48.730;9.136;2023-09-08T09:14:23;12.20;;;7.10;;
31112;SDS011;17763;48.730;9.136;2023-09-08T09:16:50;11.23;;;7.55;;
31112;SDS011;17763;48.730;9.136;2023-09-08T09:19:22;10.63;;;7.00;;
31112;SDS011;17763;48.730;9.136;2023-09-08T09:21:57;10.57;;;7.60;;
31112;SDS011;17763;48.730;9.136;2023-09-08T09:24:39;9.10;;;7.43;;
31112;SDS011;17763;48.730;9.136;2023-09-08T09:27:08;9.27;;;7.93;;
31112;SDS011;17763;48.730;9.136;2023-09-08T09:29:45;10.25;;;9.25;;
31112;SDS011;17763;48.730;9.136;2023-09-08T09:32:15;9.25;;;7.95;;
31112;SDS011;17763;48.730;9.136;2023-09-08T09:34:50;10.30;;;7.30;;
31112;SDS011;17763;48.730;9.136;2023-09-08T09:37:19;7.82;;;7.10;;
31112;SDS011;17763;48.730;9.136;2023-09-08T09:39:53;10.00;;;7.25;;
31112;SDS011;17763;48.730;9.136;2023-09-08T09:42:21;10.38;;;7.60;;
31112;SDS011;17763;48.730;9.136;2023-09-08T09:44:48;8.38;;;7.60;;
31112;SDS011;17763;48.730;9.136;2023-09-08T09:47:16;9.45;;;7.78;;
31112;SDS011;17763;48.730;9.136;2023-09-08T09:49:44;8.15;;;7.32;;
31112;SDS011;17763;48.730;9.136;2023-09-08T09:52:12;9.82;;;7.53;;
31112;SDS011;17763;48.730;9.136;2023-09-08T09:54:47;9.10;;;8.30;;
31112;SDS011;17763;48.730;9.136;2023-09-08T09:57:16;9.35;;;7.38;;
31112;SDS011;17763;48.730;9.136;2023-09-08T09:59:48;7.85;;;7.10;;
31112;SDS011;17763;48.730;9.136;2023-09-08T10:02:15;10.10;;;7.60;;
31112;SDS011;17763;48.730;9.136;2023-09-08T10:04:45;8.73;;;7.70;;
31112;SDS011;17763;48.730;9.136;2023-09-08T10:07:14;11.02;;;8.27;;
31112;SDS011;17763;48.730;9.136;2023-09-08T10:09:41;8.60;;;7.90;;
31112;SDS011;17763;48.730;9.136;2023-09-08T10:12:07;8.30;;;7.50;;
31112;SDS011;17763;48.730;9.136;2023-09-08T10:14:37;10.02;;;7.50;;
31112;SDS011;17763;48.730;9.136;2023-09-08T10:17:08;7.72;;;7.03;;
31112;SDS011;17763;48.730;9.136;2023-09-08T10:19:41;8.38;;;7.55;;
31112;SDS011;17763;48.730;9.136;2023-09-08T10:22:13;8.07;;;7.28;;
31112;SDS011;17763;48.730;9.136;2023-09-08T10:24:43;7.53;;;6.93;;
31112;SDS011;17763;48.730;9.136;2023-09-08T10:27:13;7.97;;;7.18;;
31112;SDS011;17763;48.730;9.136;2023-09-08T10:29:43;8.10;;;7.25;;
31112;SDS011;17763;48.730;9.136;2023-09-08T10:32:10;8.43;;;7.68;;
31112;SDS011;17763;48.730;9.136;2023-09-08T10:34:36;8.45;;;7.15;;
31112;SDS011;17763;48.730;9.136;2023-09-08T10:37:24;7.57;;;6.85;;
31112;SDS011;17763;48.730;9.136;2023-09-08T10:39:52;7.72;;;7.03;;
31112;SDS011;17763;48.730;9.136;2023-09-08T10:42:19;8.15;;;7.35;;
31112;SDS011;17763;48.730;9.136;2023-09-08T10:49:51;8.88;;;7.55;;
31112;SDS011;17763;48.730;9.136;2023-09-08T10:52:22;8.52;;;7.68;;
31112;SDS011;17763;48.730;9.136;2023-09-08T10:54:50;7.72;;;7.13;;
31112;SDS011;17763;48.730;9.136;2023-09-08T10:57:17;8.20;;;7.40;;
31112;SDS011;17763;48.730;9.136;2023-09-08T10:59:58;9.65;;;7.43;;
31112;SDS011;17763;48.730;9.136;2023-09-08T11:02:36;7.82;;;7.13;;
31112;SDS011;17763;48.730;9.136;2023-09-08T11:05:10;7.57;;;6.97;;
31112;SDS011;17763;48.730;9.136;2023-09-08T11:07:38;7.78;;;7.05;;
31112;SDS011;17763;48.730;9.136;2023-09-08T11:10:05;7.95;;;6.82;;
31112;SDS011;17763;48.730;9.136;2023-09-08T11:12:33;8.65;;;7.90;;
31112;SDS011;17763;48.730;9.136;2023-09-08T11:15:01;7.82;;;7.18;;
31112;SDS011;17763;48.730;9.136;2023-09-08T11:17:33;11.17;;;7.23;;
31112;SDS011;17763;48.730;9.136;2023-09-08T11:20:03;8.10;;;7.30;;
31112;SDS011;17763;48.730;9.136;2023-09-08T11:22:33;11.90;;;7.50;;
31112;SDS011;17763;48.730;9.136;2023-09-08T11:25:00;9.63;;;8.18;;
31112;SDS011;17763;48.730;9.136;2023-09-08T11:27:30;8.65;;;7.85;;
31112;SDS011;17763;48.730;9.136;2023-09-08T11:29:56;8.88;;;8.13;;
31112;SDS011;17763;48.730;9.136;2023-09-08T11:32:25;8.65;;;7.30;;
31112;SDS011;17763;48.730;9.136;2023-09-08T11:35:07;10.63;;;7.78;;
31112;SDS011;17763;48.730;9.136;2023-09-08T11:37:40;9.07;;;8.20;;
31112;SDS011;17763;48.730;9.136;2023-09-08T11:40:07;8.80;;;7.00;;
31112;SDS011;17763;48.730;9.136;2023-09-08T11:42:39;10.18;;;8.45;;
31112;SDS011;17763;48.730;9.136;2023-09-08T11:45:09;9.80;;;7.25;;
31112;SDS011;17763;48.730;9.136;2023-09-08T11:47:40;9.00;;;7.38;;
31112;SDS011;17763;48.730;9.136;2023-09-08T11:50:06;8.90;;;7.25;;
31112;SDS011;17763;48.730;9.136;2023-09-08T11:52:39;8.63;;;7.78;;
31112;SDS011;17763;48.730;9.136;2023-09-08T11:55:07;8.70;;;7.60;;
31112;SDS011;17763;48.730;9.136;2023-09-08T11:57:33;13.93;;;8.20;;
31112;SDS011;17763;48.730;9.136;2023-09-08T11:59:59;11.52;;;7.47;;
31112;SDS011;17763;48.730;9.136;2023-09-08T12:02:33;8.20;;;7.50;;
31112;SDS011;17763;48.730;9.136;2023-09-08T12:05:00;8.63;;;7.55;;
31112;SDS011;17763;48.730;9.136;2023-09-08T12:07:26;9.93;;;7.38;;
31112;SDS011;17763;48.730;9.136;2023-09-08T12:09:52;9.00;;;8.10;;
31112;SDS011;17763;48.730;9.136;2023-09-08T12:12:17;7.70;;;7.00;;
31112;SDS011;17763;48.730;9.136;2023-09-08T12:14:43;7.63;;;7.00;;
31112;SDS011;17763;48.730;9.136;2023-09-08T12:17:09;8.35;;;7.65;;
31112;SDS011;17763;48.730;9.136;2023-09-08T12:19:35;9.63;;;8.10;;
31112;SDS011;17763;48.730;9.136;2023-09-08T12:22:02;11.23;;;7.88;;
31112;SDS011;17763;48.730;9.136;2023-09-08T12:24:49;8.65;;;7.32;;
31112;SDS011;17763;48.730;9.136;2023-09-08T12:27:21;7.18;;;6.68;;
31112;SDS011;17763;48.730;9.136;2023-09-08T12:29:55;8.10;;;7.40;;
31112;SDS011;17763;48.730;9.136;2023-09-08T12:32:21;9.05;;;8.07;;
31112;SDS011;17763;48.730;9.136;2023-09-08T12:34:52;8.25;;;7.45;;
31112;SDS011;17763;48.730;9.136;2023-09-08T12:37:21;9.48;;;8.23;;
31112;SDS011;17763;48.730;9.136;2023-09-08T12:39:50;8.98;;;7.88;;
31112;SDS011;17763;48.730;9.136;2023-09-08T12:42:17;10.60;;;7.78;;
31112;SDS011;17763;48.730;9.136;2023-09-08T12:44:43;9.35;;;7.40;;
31112;SDS011;17763;48.730;9.136;2023-09-08T12:47:11;8.45;;;7.75;;
31112;SDS011;17763;48.730;9.136;2023-09-08T12:49:37;8.07;;;7.38;;
31112;SDS011;17763;48.730;9.136;2023-09-08T12:52:04;9.02;;;8.15;;
31112;SDS011;17763;48.730;9.136;2023-09-08T12:54:29;12.02;;;8.20;;
31112;SDS011;17763;48.730;9.136;2023-09-08T12:56:55;9.73;;;8.18;;
31112;SDS011;17763;48.730;9.136;2023-09-08T12:59:21;9.13;;;8.20;;
31112;SDS011;17763;48.730;9.136;2023-09-08T13:01:46;8.30;;;7.60;;
31112;SDS011;17763;48.730;9.136;2023-09-08T13:04:12;8.75;;;8.05;;
31112;SDS011;17763;48.730;9.136;2023-09-08T13:06:37;7.63;;;7.05;;
31112;SDS011;17763;48.730;9.136;2023-09-08T13:09:05;8.68;;;7.93;;
31112;SDS011;17763;48.730;9.136;2023-09-08T13:11:34;8.48;;;7.63;;
31112;SDS011;17763;48.730;9.136;2023-09-08T13:13:59;8.80;;;8.00;;
31112;SDS011;17763;48.730;9.136;2023-09-08T13:16:25;8.63;;;7.38;;
31112;SDS011;17763;48.730;9.136;2023-09-08T13:18:51;8.48;;;7.68;;
31112;SDS011;17763;48.730;9.136;2023-09-08T13:21:16;8.20;;;7.50;;
31112;SDS011;17763;48.730;9.136;2023-09-08T13:23:44;8.65;;;7.43;;
31112;SDS011;17763;48.730;9.136;2023-09-08T13:26:10;8.65;;;7.90;;
31112;SDS011;17763;48.730;9.136;2023-09-08T13:28:38;8.32;;;7.47;;
31112;SDS011;17763;48.730;9.136;2023-09-08T13:31:03;8.95;;;8.05;;
31112;SDS011;17763;48.730;9.136;2023-09-08T13:33:31;8.15;;;7.43;;
31112;SDS011;17763;48.730;9.136;2023-09-08T13:35:59;7.90;;;7.30;;
31112;SDS011;17763;48.730;9.136;2023-09-08T13:38:25;8.18;;;7.55;;
31112;SDS011;17763;48.730;9.136;2023-09-08T13:40:53;8.20;;;7.38;;
31112;SDS011;17763;48.730;9.136;2023-09-08T13:43:18;9.43;;;7.93;;
31112;SDS011;17763;48.730;9.136;2023-09-08T13:45:47;9.02;;;7.40;;
31112;SDS011;17763;48.730;9.136;2023-09-08T13:48:12;9.27;;;7.55;;
31112;SDS011;17763;48.730;9.136;2023-09-08T13:50:38;8.52;;;7.82;;
31112;SDS011;17763;48.730;9.136;2023-09-08T13:53:05;8.05;;;7.20;;
31112;SDS011;17763;48.730;9.136;2023-09-08T13:55:31;7.38;;;6.78;;
31112;SDS011;17763;48.730;9.136;2023-09-08T13:57:56;6.85;;;6.25;;
31112;SDS011;17763;48.730;9.136;2023-09-08T14:00:24;7.85;;;7.15;;
31112;SDS011;17763;48.730;9.136;2023-09-08T14:02:50;7.57;;;6.53;;
31112;SDS011;17763;48.730;9.136;2023-09-08T14:05:18;8.35;;;7.47;;
31112;SDS011;17763;48.730;9.136;2023-09-08T14:07:47;7.80;;;7.15;;
31112;SDS011;17763;48.730;9.136;2023-09-08T14:10:12;8.68;;;6.90;;
31112;SDS011;17763;48.730;9.136;2023-09-08T14:12:38;9.48;;;7.00;;
31112;SDS011;17763;48.730;9.136;2023-09-08T14:15:04;7.35;;;6.75;;
31112;SDS011;17763;48.730;9.136;2023-09-08T14:17:30;8.18;;;6.97;;
31112;SDS011;17763;48.730;9.136;2023-09-08T14:19:57;7.65;;;6.82;;
31112;SDS011;17763;48.730;9.136;2023-09-08T14:22:25;7.20;;;6.50;;
31112;SDS011;17763;48.730;9.136;2023-09-08T14:24:51;6.97;;;6.40;;
31112;SDS011;17763;48.730;9.136;2023-09-08T14:27:17;6.75;;;6.25;;
31112;SDS011;17763;48.730;9.136;2023-09-08T14:29:43;9.32;;;7.25;;
31112;SDS011;17763;48.730;9.136;2023-09-08T14:32:09;7.88;;;7.28;;
31112;SDS011;17763;48.730;9.136;2023-09-08T14:34:34;7.45;;;6.72;;
31112;SDS011;17763;48.730;9.136;2023-09-08T14:37:02;7.03;;;6.32;;
31112;SDS011;17763;48.730;9.136;2023-09-08T14:39:31;7.72;;;6.95;;
31112;SDS011;17763;48.730;9.136;2023-09-08T14:41:56;7.03;;;6.45;;
31112;SDS011;17763;48.730;9.136;2023-09-08T14:44:24;6.93;;;6.43;;
31112;SDS011;17763;48.730;9.136;2023-09-08T14:46:50;7.32;;;6.72;;
31112;SDS011;17763;48.730;9.136;2023-09-08T14:49:16;7.10;;;6.50;;
31112;SDS011;17763;48.730;9.136;2023-09-08T14:51:42;6.47;;;5.88;;
31112;SDS011;17763;48.730;9.136;2023-09-08T14:54:13;6.80;;;6.20;;
31112;SDS011;17763;48.730;9.136;2023-09-08T14:56:39;6.97;;;6.40;;
31112;SDS011;17763;48.730;9.136;2023-09-08T14:59:04;6.63;;;6.00;;